Time;durP1;ratioP1;P1;durP2;ratioP2;P2;SDS_P1;SDS_P2;PMS_P1;PMS_P2;Temp;Humidity;BMP_temperature;BMP_pressure;BME280_temperature;BME280_humidity;BME280_pressure;Samples;Min_cycle;Max_cycle;Signal;HPM_P1;HPM_P2
2022/05/18 00:01:40;;;;;;;8.65;4.08;;;;;;;;;;1747799;82;21033;-68
2022/05/18 00:04:07;;;;;;;5.67;3.10;;;;;;;;;;1747941;81;21116;-68
2022/05/18 00:06:34;;;;;;;5.37;3.00;;;;;;;;;;1747597;82;21104;-68
2022/05/18 00:08:59;;;;;;;5.75;2.90;;;;;;;;;;1747575;82;21583;-68
2022/05/18 00:11:26;;;;;;;4.90;2.40;;;;;;;;;;1745814;82;21011;-68
2022/05/18 00:13:53;;;;;;;3.42;2.27;;;;;;;;;;1747467;82;21025;-68
2022/05/18 00:16:19;;;;;;;3.55;2.00;;;;;;;;;;1747772;82;21676;-68
2022/05/18 00:18:45;;;;;;;3.92;1.98;;;;;;;;;;1747433;82;21034;-67
2022/05/18 00:21:11;;;;;;;4.65;2.15;;;;;;;;;;1748020;82;20989;-68
2022/05/18 00:23:37;;;;;;;3.75;2.05;;;;;;;;;;1747751;82;21025;-67
2022/05/18 00:26:04;;;;;;;4.87;2.58;;;;;;;;;;1747821;82;21076;-68
2022/05/18 00:28:31;;;;;;;5.03;2.45;;;;;;;;;;1747923;82;21113;-68
2022/05/18 00:30:59;;;;;;;5.67;2.90;;;;;;;;;;1748134;82;21041;-68
2022/05/18 00:33:27;;;;;;;4.80;2.65;;;;;;;;;;1747919;82;21548;-68
2022/05/18 00:35:53;;;;;;;8.80;2.95;;;;;;;;;;1747994;80;21108;-68
2022/05/18 00:38:20;;;;;;;7.47;3.62;;;;;;;;;;1747908;82;21517;-68
2022/05/18 00:40:47;;;;;;;11.03;4.35;;;;;;;;;;1748088;82;21065;-68
2022/05/18 00:43:33;;;;;;;10.03;4.53;;;;;;;;;;1748067;82;21046;-69
2022/05/18 00:46:01;;;;;;;14.25;6.58;;;;;;;;;;1747833;82;21071;-68
2022/05/18 00:48:27;;;;;;;18.85;8.95;;;;;;;;;;1748023;82;21093;-68
2022/05/18 00:50:53;;;;;;;25.65;12.30;;;;;;;;;;1734876;82;21060;-67
2022/05/18 00:53:21;;;;;;;29.05;12.15;;;;;;;;;;1717434;83;21030;-68
2022/05/18 00:55:48;;;;;;;32.63;15.30;;;;;;;;;;1717659;83;21086;-68
2022/05/18 00:58:22;;;;;;;43.28;16.32;;;;;;;;;;1717642;83;21054;-68
2022/05/18 01:03:48;;;;;;;31.17;15.45;;;;;;;;;;1706585;81;21070;-67
2022/05/18 01:06:23;;;;;;;37.98;15.75;;;;;;;;;;1736791;82;21056;-67
2022/05/18 01:09:01;;;;;;;34.27;15.88;;;;;;;;;;1736541;82;21071;-67
2022/05/18 01:11:27;;;;;;;27.17;13.00;;;;;;;;;;1736614;83;21080;-67
2022/05/18 01:13:53;;;;;;;41.42;16.73;;;;;;;;;;1736874;82;21518;-67
2022/05/18 01:16:20;;;;;;;30.40;13.98;;;;;;;;;;1737647;82;20985;-68
2022/05/18 01:18:46;;;;;;;27.35;12.03;;;;;;;;;;1738271;82;21111;-67
2022/05/18 01:21:12;;;;;;;21.87;10.18;;;;;;;;;;1738407;82;22091;-67
2022/05/18 01:23:43;;;;;;;22.48;9.15;;;;;;;;;;1719504;82;21682;-67
2022/05/18 01:26:19;;;;;;;19.57;8.55;;;;;;;;;;1736832;82;21097;-67
2022/05/18 01:28:47;;;;;;;19.95;7.35;;;;;;;;;;1736646;82;21655;-68
2022/05/18 01:31:13;;;;;;;11.95;6.30;;;;;;;;;;1735808;82;21055;-67
2022/05/18 01:33:40;;;;;;;9.80;5.60;;;;;;;;;;1736409;83;21595;-67
2022/05/18 01:36:06;;;;;;;12.50;4.95;;;;;;;;;;1737627;82;21020;-68
2022/05/18 01:38:33;;;;;;;8.80;4.70;;;;;;;;;;1736589;82;21068;-68
2022/05/18 01:41:04;;;;;;;10.30;4.42;;;;;;;;;;1737016;82;21028;-67
2022/05/18 01:43:41;;;;;;;9.13;4.50;;;;;;;;;;1736738;82;21000;-68
2022/05/18 01:46:09;;;;;;;13.48;5.03;;;;;;;;;;1736693;83;21504;-67
2022/05/18 01:48:37;;;;;;;13.32;5.00;;;;;;;;;;1736950;82;21115;-68
2022/05/18 01:51:03;;;;;;;11.20;5.45;;;;;;;;;;1736694;82;20994;-68
2022/05/18 01:53:30;;;;;;;14.63;6.53;;;;;;;;;;1736595;82;21029;-67
2022/05/18 01:55:56;;;;;;;9.53;5.37;;;;;;;;;;1736748;82;21579;-68
2022/05/18 01:58:22;;;;;;;16.10;6.42;;;;;;;;;;1738009;82;21574;-68
2022/05/18 02:00:48;;;;;;;15.70;6.92;;;;;;;;;;1738360;82;20981;-68
2022/05/18 02:03:15;;;;;;;14.00;6.53;;;;;;;;;;1736506;82;21601;-69
2022/05/18 02:05:42;;;;;;;16.00;6.83;;;;;;;;;;1734802;83;21518;-67
2022/05/18 02:08:08;;;;;;;16.07;6.75;;;;;;;;;;1730909;83;21073;-68
2022/05/18 02:10:36;;;;;;;14.55;7.80;;;;;;;;;;1734544;83;21051;-69
2022/05/18 02:13:02;;;;;;;15.85;7.47;;;;;;;;;;1720331;83;21022;-68
2022/05/18 02:15:29;;;;;;;18.87;7.50;;;;;;;;;;1705770;84;21593;-68
2022/05/18 02:17:55;;;;;;;15.72;7.37;;;;;;;;;;1705702;84;21896;-68
2022/05/18 02:20:21;;;;;;;14.03;6.92;;;;;;;;;;1705817;83;21022;-69
2022/05/18 02:22:48;;;;;;;20.80;8.40;;;;;;;;;;1705483;84;21040;-69
2022/05/18 02:25:14;;;;;;;20.88;8.18;;;;;;;;;;1705644;84;21617;-68
2022/05/18 02:27:41;;;;;;;25.52;9.28;;;;;;;;;;1707130;83;21011;-68
2022/05/18 02:30:07;;;;;;;21.85;8.83;;;;;;;;;;1705622;84;21115;-67
2022/05/18 02:32:34;;;;;;;20.27;8.88;;;;;;;;;;1705589;84;21073;-69
2022/05/18 02:35:01;;;;;;;22.85;9.50;;;;;;;;;;1705310;84;21578;-69
2022/05/18 02:37:28;;;;;;;23.65;9.00;;;;;;;;;;1705495;84;21080;-69
2022/05/18 02:39:54;;;;;;;21.73;9.15;;;;;;;;;;1705500;84;21028;-69
2022/05/18 02:42:20;;;;;;;19.65;8.85;;;;;;;;;;1705694;84;21067;-69
2022/05/18 02:44:48;;;;;;;18.32;8.48;;;;;;;;;;1660240;86;21486;-68
2022/05/18 02:47:13;;;;;;;20.77;8.18;;;;;;;;;;1714483;83;21059;-68
2022/05/18 02:49:39;;;;;;;25.90;9.43;;;;;;;;;;1706225;83;21514;-68
2022/05/18 02:52:05;;;;;;;18.82;8.28;;;;;;;;;;1722867;83;21071;-68
2022/05/18 02:57:19;;;;;;;21.42;8.55;;;;;;;;;;1735147;83;21011;-68
2022/05/18 02:59:45;;;;;;;17.65;6.85;;;;;;;;;;1718421;83;21035;-68
2022/05/18 03:02:11;;;;;;;14.87;6.75;;;;;;;;;;1705783;84;21086;-68
2022/05/18 03:04:37;;;;;;;13.35;5.35;;;;;;;;;;1661196;85;21151;-69
2022/05/18 03:07:03;;;;;;;10.08;4.80;;;;;;;;;;1661643;86;21564;-68
2022/05/18 03:09:30;;;;;;;13.68;4.70;;;;;;;;;;1691277;85;21521;-69
2022/05/18 03:11:56;;;;;;;8.93;3.62;;;;;;;;;;1688383;85;21057;-69
2022/05/18 03:14:23;;;;;;;10.55;4.65;;;;;;;;;;1676447;85;21076;-68
2022/05/18 03:16:49;;;;;;;9.38;4.15;;;;;;;;;;1672774;85;21040;-69
2022/05/18 03:19:15;;;;;;;8.40;3.98;;;;;;;;;;1662267;86;21335;-69
2022/05/18 03:24:26;;;;;;;10.48;4.25;;;;;;;;;;1664250;85;21063;-70
2022/05/18 03:26:52;;;;;;;12.55;4.50;;;;;;;;;;1653017;86;21094;-69
2022/05/18 03:29:18;;;;;;;10.45;4.58;;;;;;;;;;1636508;86;21056;-68
2022/05/18 03:31:46;;;;;;;12.37;4.78;;;;;;;;;;1663737;86;21064;-68
2022/05/18 03:34:12;;;;;;;10.40;5.78;;;;;;;;;;1664068;85;21083;-68
2022/05/18 03:36:38;;;;;;;12.13;5.90;;;;;;;;;;1663824;85;21056;-68
2022/05/18 03:39:04;;;;;;;14.53;6.35;;;;;;;;;;1662151;86;21071;-67
2022/05/18 03:41:30;;;;;;;17.37;6.65;;;;;;;;;;1662185;86;21039;-68
2022/05/18 03:43:56;;;;;;;13.30;6.72;;;;;;;;;;1662164;86;21574;-68
2022/05/18 03:46:23;;;;;;;13.35;6.37;;;;;;;;;;1663560;85;21228;-68
2022/05/18 03:48:49;;;;;;;14.15;6.45;;;;;;;;;;1662009;85;21095;-68
2022/05/18 03:51:18;;;;;;;13.88;6.35;;;;;;;;;;1676206;85;21031;-68
2022/05/18 03:53:46;;;;;;;14.98;7.25;;;;;;;;;;1676840;85;21068;-68
2022/05/18 03:56:13;;;;;;;15.72;7.67;;;;;;;;;;1634506;87;21612;-68
2022/05/18 03:58:41;;;;;;;12.00;6.28;;;;;;;;;;1637529;86;21102;-69
2022/05/18 04:01:10;;;;;;;16.82;7.20;;;;;;;;;;1636153;88;21590;-69
2022/05/18 04:03:38;;;;;;;17.60;7.10;;;;;;;;;;1649656;87;21097;-68
2022/05/18 04:06:05;;;;;;;17.50;8.28;;;;;;;;;;1655981;85;21066;-69
2022/05/18 04:08:32;;;;;;;15.58;7.47;;;;;;;;;;1656532;85;21041;-68
2022/05/18 04:10:58;;;;;;;20.52;8.70;;;;;;;;;;1708156;83;21101;-68
2022/05/18 04:13:26;;;;;;;19.50;8.95;;;;;;;;;;1722587;83;21060;-69
2022/05/18 04:15:53;;;;;;;17.32;9.13;;;;;;;;;;1719214;83;21054;-69
2022/05/18 04:18:19;;;;;;;22.65;9.73;;;;;;;;;;1702273;83;21035;-69
2022/05/18 04:20:46;;;;;;;22.42;10.30;;;;;;;;;;1712356;83;21039;-69
2022/05/18 04:23:12;;;;;;;19.00;9.28;;;;;;;;;;1722166;83;21075;-69
2022/05/18 04:25:39;;;;;;;24.67;10.20;;;;;;;;;;1728841;83;21082;-69
2022/05/18 04:28:05;;;;;;;20.85;8.65;;;;;;;;;;1726344;83;21015;-68
2022/05/18 04:30:32;;;;;;;22.45;10.63;;;;;;;;;;1714841;83;21495;-70
2022/05/18 04:32:59;;;;;;;24.90;9.28;;;;;;;;;;1716323;83;21039;-69
2022/05/18 04:35:25;;;;;;;19.80;9.50;;;;;;;;;;1709251;83;21550;-68
2022/05/18 04:37:52;;;;;;;22.15;9.33;;;;;;;;;;1725798;83;21047;-68
2022/05/18 04:40:18;;;;;;;19.48;8.75;;;;;;;;;;1729071;83;21011;-68
2022/05/18 04:42:44;;;;;;;16.60;7.97;;;;;;;;;;1728893;83;21566;-69
2022/05/18 04:45:11;;;;;;;19.15;9.18;;;;;;;;;;1729358;83;21043;-68
2022/05/18 04:47:37;;;;;;;22.15;10.38;;;;;;;;;;1729447;83;21522;-68
2022/05/18 04:50:04;;;;;;;18.42;9.43;;;;;;;;;;1729247;83;21095;-68
2022/05/18 04:52:30;;;;;;;15.88;7.67;;;;;;;;;;1729529;83;21411;-68
2022/05/18 04:54:56;;;;;;;16.35;8.15;;;;;;;;;;1729554;83;21091;-69
2022/05/18 04:57:22;;;;;;;15.90;7.28;;;;;;;;;;1729548;83;21554;-68
2022/05/18 04:59:49;;;;;;;15.60;6.83;;;;;;;;;;1729330;83;21012;-69
2022/05/18 05:02:15;;;;;;;15.20;6.72;;;;;;;;;;1729516;83;20999;-68
2022/05/18 05:06:37;;;;;;;15.58;8.13;;;;;;;;;;1819822;79;22572;-69
2022/05/18 05:09:05;;;;;;;9.80;6.20;;;;;;;;;;1793047;80;20961;-69
2022/05/18 05:11:31;;;;;;;15.90;6.75;;;;;;;;;;1792976;80;21036;-69
2022/05/18 05:13:57;;;;;;;14.50;6.40;;;;;;;;;;1792914;80;21456;-68
2022/05/18 05:16:26;;;;;;;12.07;6.30;;;;;;;;;;1792577;80;21075;-69
2022/05/18 05:18:51;;;;;;;11.83;6.00;;;;;;;;;;1792739;80;21035;-71
2022/05/18 05:21:17;;;;;;;13.65;6.30;;;;;;;;;;1793062;80;21016;-68
2022/05/18 05:23:43;;;;;;;12.00;5.55;;;;;;;;;;1793010;80;21044;-69
2022/05/18 05:26:10;;;;;;;12.33;5.25;;;;;;;;;;1793066;80;21055;-69
2022/05/18 05:28:36;;;;;;;9.65;5.33;;;;;;;;;;1793011;80;21067;-68
2022/05/18 05:31:06;;;;;;;7.87;5.05;;;;;;;;;;1792989;80;20997;-69
2022/05/18 05:33:32;;;;;;;9.03;4.10;;;;;;;;;;1792771;80;21535;-70
2022/05/18 05:35:59;;;;;;;6.10;4.25;;;;;;;;;;1792869;80;21039;-70
2022/05/18 05:38:25;;;;;;;8.68;4.20;;;;;;;;;;1793031;80;21083;-70
2022/05/18 05:40:51;;;;;;;12.15;4.75;;;;;;;;;;1792782;80;21036;-68
2022/05/18 05:43:18;;;;;;;8.33;4.62;;;;;;;;;;1793109;80;20992;-69
2022/05/18 05:45:46;;;;;;;9.23;4.97;;;;;;;;;;1792557;80;21032;-68
2022/05/18 05:48:12;;;;;;;8.25;4.78;;;;;;;;;;1791345;80;21348;-68
2022/05/18 05:50:38;;;;;;;14.78;7.53;;;;;;;;;;1792901;80;21027;-69
2022/05/18 05:53:04;;;;;;;11.08;5.87;;;;;;;;;;1793104;80;21012;-68
2022/05/18 05:55:30;;;;;;;10.93;5.67;;;;;;;;;;1793106;80;21032;-67
2022/05/18 05:57:56;;;;;;;11.15;5.58;;;;;;;;;;1792913;80;21063;-69
2022/05/18 06:00:22;;;;;;;12.13;5.47;;;;;;;;;;1793093;80;20985;-68
2022/05/18 06:02:50;;;;;;;11.30;5.40;;;;;;;;;;1792730;80;21028;-68
2022/05/18 06:05:16;;;;;;;12.10;6.30;;;;;;;;;;1788347;80;21026;-68
2022/05/18 06:07:43;;;;;;;11.53;6.35;;;;;;;;;;1779334;81;21053;-69
2022/05/18 06:10:09;;;;;;;11.00;5.67;;;;;;;;;;1779461;81;20997;-69
2022/05/18 06:12:36;;;;;;;14.45;6.50;;;;;;;;;;1779608;81;21069;-67
2022/05/18 06:15:03;;;;;;;10.25;5.95;;;;;;;;;;1779322;81;21029;-70
2022/05/18 06:17:29;;;;;;;12.58;6.10;;;;;;;;;;1779071;81;21020;-68
2022/05/18 06:19:56;;;;;;;9.78;5.20;;;;;;;;;;1778837;81;21422;-69
2022/05/18 06:22:21;;;;;;;9.20;5.37;;;;;;;;;;1779047;81;21013;-68
2022/05/18 06:24:51;;;;;;;9.10;4.90;;;;;;;;;;1778762;81;21041;-69
2022/05/18 06:27:16;;;;;;;6.80;3.83;;;;;;;;;;1778449;80;21072;-69
2022/05/18 06:29:42;;;;;;;6.03;3.65;;;;;;;;;;1778815;81;21599;-68
2022/05/18 06:32:08;;;;;;;4.97;3.08;;;;;;;;;;1778980;81;21100;-69
2022/05/18 06:34:35;;;;;;;7.50;3.27;;;;;;;;;;1778783;81;21028;-70
2022/05/18 06:37:03;;;;;;;6.17;3.00;;;;;;;;;;1778802;81;21060;-68
2022/05/18 06:39:29;;;;;;;5.53;3.05;;;;;;;;;;1778391;81;21485;-69
2022/05/18 06:41:56;;;;;;;5.58;2.72;;;;;;;;;;1778585;81;21520;-68
2022/05/18 06:44:24;;;;;;;5.47;3.20;;;;;;;;;;1778550;81;21049;-69
2022/05/18 06:46:50;;;;;;;10.80;3.10;;;;;;;;;;1778636;81;21048;-68
2022/05/18 06:49:16;;;;;;;6.87;2.90;;;;;;;;;;1778472;81;21026;-68
2022/05/18 06:51:43;;;;;;;4.87;2.60;;;;;;;;;;1778588;81;21056;-68
2022/05/18 06:54:09;;;;;;;5.72;3.10;;;;;;;;;;1778935;81;21493;-69
2022/05/18 06:56:37;;;;;;;5.12;2.80;;;;;;;;;;1778482;81;21053;-69
2022/05/18 06:59:03;;;;;;;4.78;2.40;;;;;;;;;;1778871;81;20997;-69
2022/05/18 07:01:30;;;;;;;4.60;2.75;;;;;;;;;;1778788;81;20998;-69
2022/05/18 07:03:56;;;;;;;5.60;2.50;;;;;;;;;;1778842;81;21076;-69
2022/05/18 07:06:23;;;;;;;4.42;2.40;;;;;;;;;;1784491;80;21547;-69
2022/05/18 07:08:54;;;;;;;4.37;2.27;;;;;;;;;;1787182;80;21029;-68
2022/05/18 07:11:21;;;;;;;3.90;2.60;;;;;;;;;;1787073;80;21028;-69
2022/05/18 07:13:51;;;;;;;2.90;2.10;;;;;;;;;;1787154;80;21056;-69
2022/05/18 07:16:15;;;;;;;5.78;2.35;;;;;;;;;;1786791;80;21092;-69
2022/05/18 07:18:41;;;;;;;3.30;2.20;;;;;;;;;;1787324;80;21004;-69
2022/05/18 07:21:08;;;;;;;5.00;2.55;;;;;;;;;;1787097;80;21076;-68
2022/05/18 07:23:34;;;;;;;2.62;2.10;;;;;;;;;;1787520;80;21544;-69
2022/05/18 07:26:01;;;;;;;2.52;2.02;;;;;;;;;;1787239;80;21040;-68
2022/05/18 07:28:28;;;;;;;3.02;2.10;;;;;;;;;;1787472;80;21047;-68
2022/05/18 07:30:54;;;;;;;5.92;2.58;;;;;;;;;;1787246;80;21088;-68
2022/05/18 07:33:22;;;;;;;5.53;2.72;;;;;;;;;;1787318;80;21059;-68
2022/05/18 07:35:49;;;;;;;6.95;3.40;;;;;;;;;;1787524;80;22077;-69
2022/05/18 07:38:15;;;;;;;5.03;2.50;;;;;;;;;;1787493;80;21028;-69
2022/05/18 07:40:42;;;;;;;8.48;3.83;;;;;;;;;;1787298;80;21563;-69
2022/05/18 07:43:08;;;;;;;8.25;3.87;;;;;;;;;;1787437;80;21026;-69
2022/05/18 07:45:35;;;;;;;6.40;3.50;;;;;;;;;;1787019;79;21631;-68
2022/05/18 07:48:01;;;;;;;8.63;4.05;;;;;;;;;;1787761;80;20992;-68
2022/05/18 07:50:27;;;;;;;7.17;3.45;;;;;;;;;;1787291;80;21142;-69
2022/05/18 07:52:57;;;;;;;8.13;3.60;;;;;;;;;;1787387;80;21047;-68
2022/05/18 07:55:21;;;;;;;8.58;3.40;;;;;;;;;;1787117;80;21021;-68
2022/05/18 07:57:48;;;;;;;7.35;3.60;;;;;;;;;;1787029;80;21013;-68
2022/05/18 08:00:15;;;;;;;6.60;3.27;;;;;;;;;;1787308;80;21000;-68
2022/05/18 08:02:41;;;;;;;4.85;2.67;;;;;;;;;;1787279;80;21040;-68
2022/05/18 08:05:07;;;;;;;5.95;3.08;;;;;;;;;;1787077;80;21036;-68
2022/05/18 08:07:34;;;;;;;6.40;3.12;;;;;;;;;;1784383;80;21009;-68
2022/05/18 08:15:31;;;;;;;8.78;3.60;;;;;;;;;;1784311;80;21037;-69
2022/05/18 08:17:57;;;;;;;4.40;3.08;;;;;;;;;;1784561;80;21536;-70
2022/05/18 08:20:24;;;;;;;7.42;3.10;;;;;;;;;;1784454;80;21009;-69
2022/05/18 08:22:51;;;;;;;4.28;2.83;;;;;;;;;;1784499;80;21512;-70
2022/05/18 08:25:17;;;;;;;5.40;2.77;;;;;;;;;;1784398;80;21599;-69
2022/05/18 08:27:44;;;;;;;5.70;3.25;;;;;;;;;;1784609;80;21777;-69
2022/05/18 08:30:11;;;;;;;6.28;3.40;;;;;;;;;;1784483;80;21020;-69
2022/05/18 08:32:37;;;;;;;6.30;2.87;;;;;;;;;;1784511;80;21006;-69
2022/05/18 08:35:03;;;;;;;6.42;2.80;;;;;;;;;;1784636;80;21991;-69
2022/05/18 08:37:30;;;;;;;5.90;3.12;;;;;;;;;;1784507;80;21504;-69
2022/05/18 08:39:56;;;;;;;3.92;2.45;;;;;;;;;;1784468;80;20985;-69
2022/05/18 08:42:22;;;;;;;2.70;2.02;;;;;;;;;;1784489;80;21545;-68
2022/05/18 08:44:48;;;;;;;2.58;2.08;;;;;;;;;;1784487;80;21009;-68
2022/05/18 08:47:27;;;;;;;2.83;2.10;;;;;;;;;;1784306;80;21052;-69
2022/05/18 08:49:55;;;;;;;3.27;1.87;;;;;;;;;;1784538;80;21021;-70
2022/05/18 08:52:29;;;;;;;3.12;2.05;;;;;;;;;;1784756;80;21025;-69
2022/05/18 08:55:14;;;;;;;2.25;1.80;;;;;;;;;;1784272;80;21064;-68
2022/05/18 08:57:41;;;;;;;2.87;1.82;;;;;;;;;;1784526;80;21056;-69
2022/05/18 09:00:09;;;;;;;3.50;1.87;;;;;;;;;;1784560;80;21033;-68
2022/05/18 09:02:36;;;;;;;2.22;1.67;;;;;;;;;;1784256;80;21060;-68
2022/05/18 09:05:09;;;;;;;2.10;1.65;;;;;;;;;;1756199;80;21053;-68
2022/05/18 09:07:54;;;;;;;1.98;1.60;;;;;;;;;;1784538;80;21017;-69
2022/05/18 09:10:23;;;;;;;1.70;1.50;;;;;;;;;;1784605;80;21049;-68
2022/05/18 09:12:52;;;;;;;1.70;1.55;;;;;;;;;;1784667;80;20994;-69
2022/05/18 09:15:20;;;;;;;1.72;1.62;;;;;;;;;;1784621;80;21060;-69
2022/05/18 09:17:51;;;;;;;2.55;1.77;;;;;;;;;;1784744;80;21543;-70
2022/05/18 09:20:22;;;;;;;2.35;1.80;;;;;;;;;;1784560;80;21556;-69
2022/05/18 09:23:08;;;;;;;2.00;1.80;;;;;;;;;;1784620;80;20981;-70
2022/05/18 09:25:36;;;;;;;2.35;1.72;;;;;;;;;;1784436;80;21496;-68
2022/05/18 09:28:08;;;;;;;1.50;1.37;;;;;;;;;;1784616;80;21057;-68
2022/05/18 09:30:35;;;;;;;1.90;1.65;;;;;;;;;;1784467;80;21531;-69
2022/05/18 09:33:13;;;;;;;1.80;1.70;;;;;;;;;;1784313;80;21017;-69
2022/05/18 09:35:41;;;;;;;1.82;1.55;;;;;;;;;;1784271;80;21000;-68
2022/05/18 09:38:21;;;;;;;1.60;1.50;;;;;;;;;;1784208;80;21116;-69
2022/05/18 09:40:47;;;;;;;3.25;1.60;;;;;;;;;;1784410;80;20988;-69
2022/05/18 09:43:34;;;;;;;2.30;1.72;;;;;;;;;;1784410;80;21509;-69
2022/05/18 09:46:00;;;;;;;3.30;1.98;;;;;;;;;;1784518;80;20996;-69
2022/05/18 09:48:43;;;;;;;3.58;1.80;;;;;;;;;;1784637;80;21021;-69
2022/05/18 09:51:09;;;;;;;3.80;1.95;;;;;;;;;;1784338;80;21071;-68
2022/05/18 09:53:37;;;;;;;2.47;1.77;;;;;;;;;;1756523;80;21064;-68
2022/05/18 09:56:03;;;;;;;4.28;2.25;;;;;;;;;;1784548;80;21540;-69
2022/05/18 09:58:33;;;;;;;2.75;1.98;;;;;;;;;;1784785;80;21087;-69
2022/05/18 10:09:45;;;;;;;2.58;1.95;;;;;;;;;;1779019;81;21025;-68
2022/05/18 10:12:12;;;;;;;3.15;2.20;;;;;;;;;;1778859;81;21607;-69
2022/05/18 10:14:38;;;;;;;3.15;2.15;;;;;;;;;;1778963;81;21068;-68
2022/05/18 10:17:06;;;;;;;4.05;2.52;;;;;;;;;;1778539;81;21544;-68
2022/05/18 10:19:34;;;;;;;3.10;2.55;;;;;;;;;;1778817;81;21064;-68
2022/05/18 10:22:01;;;;;;;5.10;2.65;;;;;;;;;;1778851;81;21068;-69
2022/05/18 10:24:29;;;;;;;4.42;2.80;;;;;;;;;;1778954;81;21021;-68
2022/05/18 10:27:12;;;;;;;4.40;3.15;;;;;;;;;;1778969;81;20986;-68
2022/05/18 10:29:38;;;;;;;5.53;3.30;;;;;;;;;;1779251;81;21017;-68
2022/05/18 10:32:08;;;;;;;4.75;3.02;;;;;;;;;;1778943;81;21053;-69
2022/05/18 10:34:36;;;;;;;4.47;3.27;;;;;;;;;;1778981;81;21029;-69
2022/05/18 10:37:03;;;;;;;5.60;3.17;;;;;;;;;;1776091;80;21049;-69
2022/05/18 10:39:34;;;;;;;5.25;3.10;;;;;;;;;;1779024;81;20989;-69
2022/05/18 10:42:01;;;;;;;3.80;2.98;;;;;;;;;;1778094;80;21033;-68
2022/05/18 10:44:28;;;;;;;4.47;3.37;;;;;;;;;;1779019;81;21536;-69
2022/05/18 10:46:54;;;;;;;5.15;3.05;;;;;;;;;;1778892;81;21072;-69
2022/05/18 10:49:31;;;;;;;5.42;3.00;;;;;;;;;;1778991;81;21405;-68
2022/05/18 10:52:11;;;;;;;6.03;3.15;;;;;;;;;;1778871;81;21080;-68
2022/05/18 10:54:37;;;;;;;5.90;3.77;;;;;;;;;;1733900;80;21013;-69
2022/05/18 10:57:11;;;;;;;4.40;3.22;;;;;;;;;;1778727;81;21107;-68
2022/05/18 10:59:51;;;;;;;5.33;3.37;;;;;;;;;;1778776;81;21586;-68
2022/05/18 11:02:21;;;;;;;6.17;3.37;;;;;;;;;;1778773;81;21540;-69
2022/05/18 11:04:54;;;;;;;5.10;2.80;;;;;;;;;;1778656;81;21659;-69
2022/05/18 11:07:21;;;;;;;6.03;3.75;;;;;;;;;;1781869;80;21077;-68
2022/05/18 11:09:47;;;;;;;5.67;3.15;;;;;;;;;;1784595;80;21048;-68
2022/05/18 11:12:34;;;;;;;4.20;3.12;;;;;;;;;;1784542;80;20985;-68
2022/05/18 11:15:04;;;;;;;7.22;3.10;;;;;;;;;;1784565;80;21567;-68
2022/05/18 11:17:49;;;;;;;5.45;3.27;;;;;;;;;;1784570;80;21591;-68
2022/05/18 11:20:20;;;;;;;4.00;3.10;;;;;;;;;;1784356;80;21076;-69
2022/05/18 11:23:05;;;;;;;5.03;3.45;;;;;;;;;;1784480;80;21040;-68
2022/05/18 11:25:39;;;;;;;5.30;3.20;;;;;;;;;;1784352;80;21040;-69
2022/05/18 11:28:13;;;;;;;5.17;3.70;;;;;;;;;;1755760;80;21508;-69
2022/05/18 11:30:44;;;;;;;4.85;3.40;;;;;;;;;;1783969;80;21144;-68
2022/05/18 11:33:12;;;;;;;4.15;2.83;;;;;;;;;;1784393;80;21048;-68
2022/05/18 11:35:40;;;;;;;4.87;3.35;;;;;;;;;;1783989;80;21044;-69
2022/05/18 11:38:14;;;;;;;4.58;3.20;;;;;;;;;;1784189;80;21012;-69
2022/05/18 11:40:41;;;;;;;4.78;3.35;;;;;;;;;;1784198;80;21532;-69
2022/05/18 11:43:28;;;;;;;4.45;3.30;;;;;;;;;;1784462;80;21091;-69
2022/05/18 11:46:14;;;;;;;4.10;2.83;;;;;;;;;;1784382;80;21020;-69
2022/05/18 11:48:54;;;;;;;4.17;2.85;;;;;;;;;;1784674;80;21520;-69
2022/05/18 11:51:28;;;;;;;5.20;2.85;;;;;;;;;;1784494;80;21029;-69
2022/05/18 11:53:57;;;;;;;3.52;2.72;;;;;;;;;;1784637;80;21084;-69
2022/05/18 11:56:40;;;;;;;4.65;3.02;;;;;;;;;;1784669;80;21036;-69
2022/05/18 12:01:59;;;;;;;3.47;2.65;;;;;;;;;;1784674;80;21020;-68
2022/05/18 12:04:36;;;;;;;4.40;2.80;;;;;;;;;;1784083;80;21052;-69
2022/05/18 12:07:17;;;;;;;5.55;3.00;;;;;;;;;;1782474;80;21036;-69
2022/05/18 12:09:58;;;;;;;4.40;2.65;;;;;;;;;;1778862;81;21017;-69
2022/05/18 12:12:34;;;;;;;5.30;2.90;;;;;;;;;;1778040;80;21013;-69
2022/05/18 12:15:05;;;;;;;4.92;3.08;;;;;;;;;;1778734;80;21575;-69
2022/05/18 12:17:47;;;;;;;4.37;2.52;;;;;;;;;;1756952;81;21025;-70
2022/05/18 12:20:27;;;;;;;4.40;2.80;;;;;;;;;;1778884;81;21057;-69
2022/05/18 12:22:54;;;;;;;4.45;2.80;;;;;;;;;;1778743;81;21037;-70
2022/05/18 12:25:21;;;;;;;3.92;2.80;;;;;;;;;;1778700;81;21635;-69
2022/05/18 12:27:48;;;;;;;3.72;2.67;;;;;;;;;;1778561;81;21017;-70
2022/05/18 12:30:14;;;;;;;3.62;2.70;;;;;;;;;;1779022;81;21005;-69
2022/05/18 12:32:40;;;;;;;3.77;2.77;;;;;;;;;;1778498;81;22037;-69
2022/05/18 12:35:17;;;;;;;2.87;2.20;;;;;;;;;;1778608;81;21107;-70
2022/05/18 12:37:48;;;;;;;3.80;2.50;;;;;;;;;;1778513;81;21534;-70
2022/05/18 12:40:16;;;;;;;5.03;2.50;;;;;;;;;;1778782;81;21068;-69
2022/05/18 12:42:44;;;;;;;4.33;2.72;;;;;;;;;;1778671;81;21029;-70
2022/05/18 12:45:12;;;;;;;4.30;2.58;;;;;;;;;;1777962;80;21056;-70
2022/05/18 12:47:41;;;;;;;2.90;2.40;;;;;;;;;;1778639;81;21048;-70
2022/05/18 12:50:14;;;;;;;3.20;2.70;;;;;;;;;;1778851;81;21028;-69
2022/05/18 12:52:51;;;;;;;3.25;2.27;;;;;;;;;;1778894;81;21520;-69
2022/05/18 12:55:19;;;;;;;3.72;2.72;;;;;;;;;;1778648;81;21604;-70
2022/05/18 12:57:49;;;;;;;4.42;2.70;;;;;;;;;;1778853;81;21009;-70
2022/05/18 13:00:26;;;;;;;4.17;2.52;;;;;;;;;;1778677;81;21065;-69
2022/05/18 13:02:56;;;;;;;4.20;2.83;;;;;;;;;;1778663;81;21013;-70
2022/05/18 13:05:28;;;;;;;3.47;2.60;;;;;;;;;;1756815;81;21009;-70
2022/05/18 13:07:54;;;;;;;4.80;2.75;;;;;;;;;;1781886;80;21068;-70
2022/05/18 13:10:23;;;;;;;3.52;2.58;;;;;;;;;;1784664;80;21073;-69
2022/05/18 13:12:52;;;;;;;4.87;2.42;;;;;;;;;;1784470;80;21512;-69
2022/05/18 13:15:38;;;;;;;4.78;2.52;;;;;;;;;;1784611;80;21063;-69
2022/05/18 13:18:20;;;;;;;3.95;2.83;;;;;;;;;;1784350;80;20977;-70
2022/05/18 13:20:54;;;;;;;4.42;2.55;;;;;;;;;;1784656;80;22112;-69
2022/05/18 13:23:32;;;;;;;4.42;2.70;;;;;;;;;;1784481;80;21021;-69
2022/05/18 13:26:09;;;;;;;5.17;2.80;;;;;;;;;;1784490;80;21080;-69
2022/05/18 13:28:37;;;;;;;4.12;2.60;;;;;;;;;;1784834;80;21060;-70
2022/05/18 13:31:03;;;;;;;3.30;2.60;;;;;;;;;;1784688;80;21008;-69
2022/05/18 13:33:31;;;;;;;5.03;2.52;;;;;;;;;;1756250;80;20984;-69
2022/05/18 13:35:57;;;;;;;3.20;2.33;;;;;;;;;;1783937;80;21026;-70
2022/05/18 13:38:28;;;;;;;4.35;2.80;;;;;;;;;;1784839;80;21028;-70
2022/05/18 13:40:55;;;;;;;5.35;3.22;;;;;;;;;;1784605;80;21045;-69
2022/05/18 13:43:22;;;;;;;6.08;3.70;;;;;;;;;;1784917;80;21181;-69
2022/05/18 13:45:53;;;;;;;4.83;3.27;;;;;;;;;;1784769;80;21009;-69
2022/05/18 13:48:19;;;;;;;4.95;2.95;;;;;;;;;;1784888;80;21036;-69
2022/05/18 13:51:02;;;;;;;3.58;2.60;;;;;;;;;;1756449;80;21568;-69
2022/05/18 13:53:29;;;;;;;5.03;3.12;;;;;;;;;;1785297;80;21040;-69
2022/05/18 13:55:57;;;;;;;4.37;2.77;;;;;;;;;;1785160;80;21024;-69
2022/05/18 13:58:23;;;;;;;5.40;2.40;;;;;;;;;;1783491;80;21039;-69
2022/05/18 14:01:02;;;;;;;4.17;3.00;;;;;;;;;;1785272;80;21025;-69
2022/05/18 14:03:32;;;;;;;5.87;3.30;;;;;;;;;;1785169;80;21037;-69
2022/05/18 14:06:00;;;;;;;6.60;3.35;;;;;;;;;;1785591;80;21009;-69
2022/05/18 14:08:30;;;;;;;5.72;3.70;;;;;;;;;;1784709;80;21033;-69
2022/05/18 14:10:55;;;;;;;4.55;3.27;;;;;;;;;;1784596;80;21033;-69
2022/05/18 14:13:22;;;;;;;5.92;3.10;;;;;;;;;;1784653;80;21028;-70
2022/05/18 14:15:49;;;;;;;3.80;2.60;;;;;;;;;;1784677;80;21017;-69
2022/05/18 14:18:15;;;;;;;4.95;3.02;;;;;;;;;;1784559;80;21025;-70
2022/05/18 14:20:43;;;;;;;6.05;3.10;;;;;;;;;;1784610;80;21574;-70
2022/05/18 14:23:19;;;;;;;4.00;2.85;;;;;;;;;;1784484;80;21000;-70
2022/05/18 14:25:46;;;;;;;5.65;3.33;;;;;;;;;;1784400;80;21567;-69
2022/05/18 14:28:12;;;;;;;4.22;2.80;;;;;;;;;;1784484;80;21540;-70
2022/05/18 14:30:40;;;;;;;5.40;3.70;;;;;;;;;;1784499;80;21021;-70
2022/05/18 14:33:11;;;;;;;6.70;3.80;;;;;;;;;;1784417;80;21029;-69
2022/05/18 14:35:41;;;;;;;6.55;4.28;;;;;;;;;;1784488;80;21037;-68
2022/05/18 14:38:07;;;;;;;8.63;4.15;;;;;;;;;;1784546;80;21000;-68
2022/05/18 14:40:38;;;;;;;6.53;3.50;;;;;;;;;;1784488;80;21036;-68
2022/05/18 14:43:06;;;;;;;5.65;3.67;;;;;;;;;;1784522;80;21037;-68
2022/05/18 14:45:34;;;;;;;7.08;4.10;;;;;;;;;;1784273;80;21029;-69
2022/05/18 14:48:08;;;;;;;6.33;3.50;;;;;;;;;;1783536;80;21082;-69
2022/05/18 14:50:38;;;;;;;6.12;3.35;;;;;;;;;;1784664;80;21005;-70
2022/05/18 14:53:06;;;;;;;6.65;3.35;;;;;;;;;;1784485;80;21064;-70
2022/05/18 14:55:36;;;;;;;10.10;4.58;;;;;;;;;;1784632;80;21084;-69
2022/05/18 14:58:02;;;;;;;7.87;4.12;;;;;;;;;;1784626;80;21040;-70
2022/05/18 15:00:30;;;;;;;5.70;3.65;;;;;;;;;;1784784;80;20993;-69
2022/05/18 15:02:58;;;;;;;7.90;4.50;;;;;;;;;;1783777;80;21580;-69
2022/05/18 15:05:25;;;;;;;6.37;4.20;;;;;;;;;;1784934;80;21029;-69
2022/05/18 15:07:52;;;;;;;5.87;3.75;;;;;;;;;;1782708;80;21088;-68
2022/05/18 15:10:35;;;;;;;5.00;3.17;;;;;;;;;;1778848;81;20985;-69
2022/05/18 15:13:03;;;;;;;4.92;3.12;;;;;;;;;;1778821;81;21032;-69
2022/05/18 15:15:32;;;;;;;4.62;3.20;;;;;;;;;;1778959;81;21034;-68